Airport Name : Orlando Sanford Intl

Other Name : Orlando Sanford

ICAO : KSFB

IATA : SFB

FAA : SFB

Latitude : 28.777639

Longitude : -81.237489

Country : United States

Local Date and Time : 29 Oct 2020 01:17

 

TAF (Terminal Aerodrome Forecast)

KSFB 282322Z 2900/2924 14005KT P6SM FEW030 FM290800 17004KT P6SM FEW020 FEW250 FM291500 20011KT P6SM SCT030 SCT250

 

METAR (METeorological Aerodrome Report)

KSFB 290453Z AUTO 15006KT 10SM CLR 25/23 A2999 RMK AO2 SLP153 T02500233 403220228

KSFB 290353Z AUTO 15006KT 10SM CLR 25/23 A2999 RMK AO2 SLP155 T02500228

KSFB 290253Z AUTO 15008KT 10SM CLR 25/23 A3000 RMK AO2 SLP157 T02500228 50002

KSFB 290153Z 14006KT 10SM CLR 25/23 A3000 RMK AO2 SLP159 T02500228

To Charter a Jet Click here.